sensor_id;sensor_type;location;lat;lon;timestamp;temperature;humidity
21861;DHT22;11095;48.066;8.540;2022-07-23T00:00:58;19.20;99.90
21861;DHT22;11095;48.066;8.540;2022-07-23T00:03:24;19.10;99.90
21861;DHT22;11095;48.066;8.540;2022-07-23T00:05:50;19.00;99.90
21861;DHT22;11095;48.066;8.540;2022-07-23T00:08:15;18.90;99.90
21861;DHT22;11095;48.066;8.540;2022-07-23T00:10:41;18.90;99.90
21861;DHT22;11095;48.066;8.540;2022-07-23T00:13:07;18.90;99.90
21861;DHT22;11095;48.066;8.540;2022-07-23T00:15:33;18.90;99.90
21861;DHT22;11095;48.066;8.540;2022-07-23T00:17:59;19.00;99.90
21861;DHT22;11095;48.066;8.540;2022-07-23T00:20:24;19.00;99.90
21861;DHT22;11095;48.066;8.540;2022-07-23T00:22:53;18.90;99.90
21861;DHT22;11095;48.066;8.540;2022-07-23T00:25:20;18.90;99.90
21861;DHT22;11095;48.066;8.540;2022-07-23T00:27:46;18.90;99.90
21861;DHT22;11095;48.066;8.540;2022-07-23T00:30:13;18.90;99.90
21861;DHT22;11095;48.066;8.540;2022-07-23T00:32:49;18.90;99.90
21861;DHT22;11095;48.066;8.540;2022-07-23T00:35:16;18.90;99.90
21861;DHT22;11095;48.066;8.540;2022-07-23T00:37:44;18.90;99.90
21861;DHT22;11095;48.066;8.540;2022-07-23T00:40:10;18.80;99.90
21861;DHT22;11095;48.066;8.540;2022-07-23T00:42:36;18.80;99.90
21861;DHT22;11095;48.066;8.540;2022-07-23T00:45:03;18.70;99.90
21861;DHT22;11095;48.066;8.540;2022-07-23T00:47:28;18.70;99.90
21861;DHT22;11095;48.066;8.540;2022-07-23T00:49:54;18.60;99.90
21861;DHT22;11095;48.066;8.540;2022-07-23T00:52:20;18.60;99.90
21861;DHT22;11095;48.066;8.540;2022-07-23T00:54:46;18.60;99.90
21861;DHT22;11095;48.066;8.540;2022-07-23T00:57:12;18.60;99.90
21861;DHT22;11095;48.066;8.540;2022-07-23T00:59:41;18.60;99.90
21861;DHT22;11095;48.066;8.540;2022-07-23T01:02:07;18.60;99.90
21861;DHT22;11095;48.066;8.540;2022-07-23T01:04:32;18.60;99.90
21861;DHT22;11095;48.066;8.540;2022-07-23T01:06:58;18.60;99.90
21861;DHT22;11095;48.066;8.540;2022-07-23T01:09:24;18.60;99.90
21861;DHT22;11095;48.066;8.540;2022-07-23T01:11:50;18.60;99.90
21861;DHT22;11095;48.066;8.540;2022-07-23T01:14:18;18.60;99.90
21861;DHT22;11095;48.066;8.540;2022-07-23T01:16:45;18.50;99.90
21861;DHT22;11095;48.066;8.540;2022-07-23T01:19:12;18.50;99.90
21861;DHT22;11095;48.066;8.540;2022-07-23T01:21:42;18.50;99.90
21861;DHT22;11095;48.066;8.540;2022-07-23T01:24:09;18.50;99.90
21861;DHT22;11095;48.066;8.540;2022-07-23T01:26:36;18.50;99.90
21861;DHT22;11095;48.066;8.540;2022-07-23T01:29:02;18.40;99.90
21861;DHT22;11095;48.066;8.540;2022-07-23T01:31:28;18.40;99.90
21861;DHT22;11095;48.066;8.540;2022-07-23T01:33:54;18.30;99.90
21861;DHT22;11095;48.066;8.540;2022-07-23T01:36:20;18.30;99.90
21861;DHT22;11095;48.066;8.540;2022-07-23T01:38:46;18.30;99.90
21861;DHT22;11095;48.066;8.540;2022-07-23T01:41:12;18.30;99.90
21861;DHT22;11095;48.066;8.540;2022-07-23T01:43:38;18.30;99.90
21861;DHT22;11095;48.066;8.540;2022-07-23T01:46:04;18.30;99.90
21861;DHT22;11095;48.066;8.540;2022-07-23T01:48:29;18.40;99.90
21861;DHT22;11095;48.066;8.540;2022-07-23T01:50:55;18.30;99.90
21861;DHT22;11095;48.066;8.540;2022-07-23T01:53:20;18.40;99.90
21861;DHT22;11095;48.066;8.540;2022-07-23T01:55:47;18.40;99.90
21861;DHT22;11095;48.066;8.540;2022-07-23T01:58:13;18.40;99.90
21861;DHT22;11095;48.066;8.540;2022-07-23T02:00:38;18.50;99.90
21861;DHT22;11095;48.066;8.540;2022-07-23T02:03:04;18.50;99.90
21861;DHT22;11095;48.066;8.540;2022-07-23T02:05:30;18.50;99.90
21861;DHT22;11095;48.066;8.540;2022-07-23T02:07:57;18.60;99.90
21861;DHT22;11095;48.066;8.540;2022-07-23T02:10:23;18.60;99.90
21861;DHT22;11095;48.066;8.540;2022-07-23T02:12:49;18.60;99.90
21861;DHT22;11095;48.066;8.540;2022-07-23T02:15:15;18.60;99.90
21861;DHT22;11095;48.066;8.540;2022-07-23T02:17:40;18.60;99.90
21861;DHT22;11095;48.066;8.540;2022-07-23T02:20:07;18.60;99.90
21861;DHT22;11095;48.066;8.540;2022-07-23T02:22:34;18.60;99.90
21861;DHT22;11095;48.066;8.540;2022-07-23T02:24:59;18.60;99.90
21861;DHT22;11095;48.066;8.540;2022-07-23T02:27:25;18.50;99.90
21861;DHT22;11095;48.066;8.540;2022-07-23T02:29:51;18.50;99.90
21861;DHT22;11095;48.066;8.540;2022-07-23T02:32:17;18.40;99.90
21861;DHT22;11095;48.066;8.540;2022-07-23T02:34:42;18.40;99.90
21861;DHT22;11095;48.066;8.540;2022-07-23T02:37:08;18.40;99.90
21861;DHT22;11095;48.066;8.540;2022-07-23T02:39:35;18.40;99.90
21861;DHT22;11095;48.066;8.540;2022-07-23T02:42:01;18.40;99.90
21861;DHT22;11095;48.066;8.540;2022-07-23T02:44:27;18.40;99.90
21861;DHT22;11095;48.066;8.540;2022-07-23T02:46:53;18.40;99.90
21861;DHT22;11095;48.066;8.540;2022-07-23T02:49:19;18.40;99.90
21861;DHT22;11095;48.066;8.540;2022-07-23T02:51:44;18.40;99.90
21861;DHT22;11095;48.066;8.540;2022-07-23T02:54:10;18.30;99.90
21861;DHT22;11095;48.066;8.540;2022-07-23T02:56:36;18.30;99.90
21861;DHT22;11095;48.066;8.540;2022-07-23T02:59:01;18.20;99.90
21861;DHT22;11095;48.066;8.540;2022-07-23T03:01:27;18.10;99.90
21861;DHT22;11095;48.066;8.540;2022-07-23T03:03:52;18.10;99.90
21861;DHT22;11095;48.066;8.540;2022-07-23T03:06:18;18.10;99.90
21861;DHT22;11095;48.066;8.540;2022-07-23T03:08:44;18.10;99.90
21861;DHT22;11095;48.066;8.540;2022-07-23T03:11:09;18.10;99.90
21861;DHT22;11095;48.066;8.540;2022-07-23T03:13:38;18.00;99.90
21861;DHT22;11095;48.066;8.540;2022-07-23T03:16:04;18.00;99.90
21861;DHT22;11095;48.066;8.540;2022-07-23T03:18:30;18.10;99.90
21861;DHT22;11095;48.066;8.540;2022-07-23T03:20:56;18.10;99.90
21861;DHT22;11095;48.066;8.540;2022-07-23T03:23:22;18.10;99.90
21861;DHT22;11095;48.066;8.540;2022-07-23T03:25:47;18.10;99.90
21861;DHT22;11095;48.066;8.540;2022-07-23T03:28:14;18.10;99.90
21861;DHT22;11095;48.066;8.540;2022-07-23T03:30:45;18.10;99.90
21861;DHT22;11095;48.066;8.540;2022-07-23T03:33:13;18.10;99.90
21861;DHT22;11095;48.066;8.540;2022-07-23T03:35:39;18.20;99.90
21861;DHT22;11095;48.066;8.540;2022-07-23T03:38:05;18.20;99.90
21861;DHT22;11095;48.066;8.540;2022-07-23T03:40:30;18.10;99.90
21861;DHT22;11095;48.066;8.540;2022-07-23T03:42:56;18.10;99.90
21861;DHT22;11095;48.066;8.540;2022-07-23T03:45:22;18.10;99.90
21861;DHT22;11095;48.066;8.540;2022-07-23T03:47:47;18.10;99.90
21861;DHT22;11095;48.066;8.540;2022-07-23T03:50:13;18.10;99.90
21861;DHT22;11095;48.066;8.540;2022-07-23T03:52:39;18.00;99.90
21861;DHT22;11095;48.066;8.540;2022-07-23T03:55:05;18.00;99.90
21861;DHT22;11095;48.066;8.540;2022-07-23T03:57:31;18.00;99.90
21861;DHT22;11095;48.066;8.540;2022-07-23T03:59:56;18.10;99.90
21861;DHT22;11095;48.066;8.540;2022-07-23T04:02:22;18.10;99.90
21861;DHT22;11095;48.066;8.540;2022-07-23T04:04:48;18.20;99.90
21861;DHT22;11095;48.066;8.540;2022-07-23T04:07:14;18.30;99.90
21861;DHT22;11095;48.066;8.540;2022-07-23T04:09:40;18.00;99.90
21861;DHT22;11095;48.066;8.540;2022-07-23T04:12:06;17.70;99.90
21861;DHT22;11095;48.066;8.540;2022-07-23T04:14:32;17.40;99.90
21861;DHT22;11095;48.066;8.540;2022-07-23T04:16:58;17.20;99.90
21861;DHT22;11095;48.066;8.540;2022-07-23T04:19:24;17.10;99.90
21861;DHT22;11095;48.066;8.540;2022-07-23T04:21:50;17.10;99.90
21861;DHT22;11095;48.066;8.540;2022-07-23T04:24:16;17.10;99.90
21861;DHT22;11095;48.066;8.540;2022-07-23T04:26:41;17.20;99.90
21861;DHT22;11095;48.066;8.540;2022-07-23T04:29:07;17.20;99.90
21861;DHT22;11095;48.066;8.540;2022-07-23T04:31:33;17.20;99.90
21861;DHT22;11095;48.066;8.540;2022-07-23T04:33:58;17.30;99.90
21861;DHT22;11095;48.066;8.540;2022-07-23T04:36:24;17.30;99.90
21861;DHT22;11095;48.066;8.540;2022-07-23T04:38:49;17.40;99.90
21861;DHT22;11095;48.066;8.540;2022-07-23T04:41:15;17.40;99.90
21861;DHT22;11095;48.066;8.540;2022-07-23T04:43:41;17.50;99.90
21861;DHT22;11095;48.066;8.540;2022-07-23T04:46:06;17.60;99.90
21861;DHT22;11095;48.066;8.540;2022-07-23T04:48:32;17.70;99.90
21861;DHT22;11095;48.066;8.540;2022-07-23T04:50:58;17.70;99.90
21861;DHT22;11095;48.066;8.540;2022-07-23T04:53:23;17.80;99.90
21861;DHT22;11095;48.066;8.540;2022-07-23T04:55:49;17.90;99.90
21861;DHT22;11095;48.066;8.540;2022-07-23T04:58:16;18.10;99.90
21861;DHT22;11095;48.066;8.540;2022-07-23T05:00:41;18.30;99.90
21861;DHT22;11095;48.066;8.540;2022-07-23T05:03:07;18.40;99.90
21861;DHT22;11095;48.066;8.540;2022-07-23T05:05:32;18.40;99.90
21861;DHT22;11095;48.066;8.540;2022-07-23T05:07:58;18.50;99.90
21861;DHT22;11095;48.066;8.540;2022-07-23T05:10:24;18.50;99.90
21861;DHT22;11095;48.066;8.540;2022-07-23T05:12:49;18.50;99.90
21861;DHT22;11095;48.066;8.540;2022-07-23T05:15:15;18.50;99.90
21861;DHT22;11095;48.066;8.540;2022-07-23T05:17:40;18.50;99.90
21861;DHT22;11095;48.066;8.540;2022-07-23T05:20:06;18.50;99.90
21861;DHT22;11095;48.066;8.540;2022-07-23T05:22:32;18.60;99.90
21861;DHT22;11095;48.066;8.540;2022-07-23T05:24:58;18.70;99.90
21861;DHT22;11095;48.066;8.540;2022-07-23T05:27:24;18.80;99.90
21861;DHT22;11095;48.066;8.540;2022-07-23T05:29:50;18.90;99.90
21861;DHT22;11095;48.066;8.540;2022-07-23T05:32:15;19.30;99.90
21861;DHT22;11095;48.066;8.540;2022-07-23T05:34:41;20.00;99.90
21861;DHT22;11095;48.066;8.540;2022-07-23T05:37:07;21.10;99.90
21861;DHT22;11095;48.066;8.540;2022-07-23T05:39:32;22.40;99.90
21861;DHT22;11095;48.066;8.540;2022-07-23T05:41:58;23.70;99.90
21861;DHT22;11095;48.066;8.540;2022-07-23T05:44:23;24.80;99.90
21861;DHT22;11095;48.066;8.540;2022-07-23T05:46:49;26.00;99.90
21861;DHT22;11095;48.066;8.540;2022-07-23T05:49:15;26.90;99.90
21861;DHT22;11095;48.066;8.540;2022-07-23T05:51:40;27.40;99.90
21861;DHT22;11095;48.066;8.540;2022-07-23T05:54:06;28.10;99.90
21861;DHT22;11095;48.066;8.540;2022-07-23T05:56:31;29.00;99.90
21861;DHT22;11095;48.066;8.540;2022-07-23T05:59:00;30.00;99.90
21861;DHT22;11095;48.066;8.540;2022-07-23T06:01:26;30.70;99.90
21861;DHT22;11095;48.066;8.540;2022-07-23T06:07:05;32.10;99.90
21861;DHT22;11095;48.066;8.540;2022-07-23T06:09:30;32.90;99.90
21861;DHT22;11095;48.066;8.540;2022-07-23T06:11:56;32.80;99.90
21861;DHT22;11095;48.066;8.540;2022-07-23T06:14:21;32.90;99.90
21861;DHT22;11095;48.066;8.540;2022-07-23T06:16:48;32.60;99.90
21861;DHT22;11095;48.066;8.540;2022-07-23T06:19:14;32.90;99.90
21861;DHT22;11095;48.066;8.540;2022-07-23T06:21:39;33.20;99.90
21861;DHT22;11095;48.066;8.540;2022-07-23T06:24:05;33.00;99.90
21861;DHT22;11095;48.066;8.540;2022-07-23T06:26:34;33.00;99.90
21861;DHT22;11095;48.066;8.540;2022-07-23T06:29:00;33.20;99.70
21861;DHT22;11095;48.066;8.540;2022-07-23T06:31:26;33.60;98.70
21861;DHT22;11095;48.066;8.540;2022-07-23T06:33:51;34.00;98.60
21861;DHT22;11095;48.066;8.540;2022-07-23T06:36:17;34.50;97.50
21861;DHT22;11095;48.066;8.540;2022-07-23T06:38:43;35.20;95.90
21861;DHT22;11095;48.066;8.540;2022-07-23T06:41:09;35.80;95.40
21861;DHT22;11095;48.066;8.540;2022-07-23T06:43:34;36.20;94.00
21861;DHT22;11095;48.066;8.540;2022-07-23T06:49:01;34.50;93.40
21861;DHT22;11095;48.066;8.540;2022-07-23T06:51:27;32.90;94.70
21861;DHT22;11095;48.066;8.540;2022-07-23T06:53:52;31.70;96.30
21861;DHT22;11095;48.066;8.540;2022-07-23T06:56:18;30.70;97.80
21861;DHT22;11095;48.066;8.540;2022-07-23T06:58:44;29.70;99.10
21861;DHT22;11095;48.066;8.540;2022-07-23T07:01:09;28.80;99.90
21861;DHT22;11095;48.066;8.540;2022-07-23T07:03:35;28.10;99.90
21861;DHT22;11095;48.066;8.540;2022-07-23T07:06:01;27.70;99.90
21861;DHT22;11095;48.066;8.540;2022-07-23T07:08:31;28.00;99.90
21861;DHT22;11095;48.066;8.540;2022-07-23T07:10:56;28.80;99.90
21861;DHT22;11095;48.066;8.540;2022-07-23T07:13:22;29.70;99.90
21861;DHT22;11095;48.066;8.540;2022-07-23T07:15:48;30.20;99.90
21861;DHT22;11095;48.066;8.540;2022-07-23T07:18:13;30.70;99.90
21861;DHT22;11095;48.066;8.540;2022-07-23T07:20:39;30.80;99.90
21861;DHT22;11095;48.066;8.540;2022-07-23T07:23:05;30.30;99.90
21861;DHT22;11095;48.066;8.540;2022-07-23T07:25:30;30.40;99.90
21861;DHT22;11095;48.066;8.540;2022-07-23T07:27:56;30.90;99.90
21861;DHT22;11095;48.066;8.540;2022-07-23T07:30:25;30.90;99.90
21861;DHT22;11095;48.066;8.540;2022-07-23T07:32:51;31.40;99.90
21861;DHT22;11095;48.066;8.540;2022-07-23T07:35:17;31.80;99.90
21861;DHT22;11095;48.066;8.540;2022-07-23T07:37:42;31.70;99.90
21861;DHT22;11095;48.066;8.540;2022-07-23T07:40:08;31.40;99.90
21861;DHT22;11095;48.066;8.540;2022-07-23T07:42:34;30.80;99.90
21861;DHT22;11095;48.066;8.540;2022-07-23T07:45:00;29.90;99.90
21861;DHT22;11095;48.066;8.540;2022-07-23T07:47:26;29.10;99.90
21861;DHT22;11095;48.066;8.540;2022-07-23T07:49:51;28.30;99.90
21861;DHT22;11095;48.066;8.540;2022-07-23T07:52:17;27.50;99.90
21861;DHT22;11095;48.066;8.540;2022-07-23T07:54:43;26.70;99.90
21861;DHT22;11095;48.066;8.540;2022-07-23T07:57:09;26.00;99.90
21861;DHT22;11095;48.066;8.540;2022-07-23T07:59:34;25.50;99.90
21861;DHT22;11095;48.066;8.540;2022-07-23T08:02:00;25.10;99.90
21861;DHT22;11095;48.066;8.540;2022-07-23T08:04:26;24.80;99.90
21861;DHT22;11095;48.066;8.540;2022-07-23T08:06:54;24.90;99.90
21861;DHT22;11095;48.066;8.540;2022-07-23T08:09:20;25.30;99.90
21861;DHT22;11095;48.066;8.540;2022-07-23T08:11:46;25.60;99.90
21861;DHT22;11095;48.066;8.540;2022-07-23T08:14:11;25.60;99.90
21861;DHT22;11095;48.066;8.540;2022-07-23T08:16:37;26.20;99.90
21861;DHT22;11095;48.066;8.540;2022-07-23T08:19:03;26.50;99.90
21861;DHT22;11095;48.066;8.540;2022-07-23T08:21:29;26.00;99.90
21861;DHT22;11095;48.066;8.540;2022-07-23T08:23:54;25.70;99.90
21861;DHT22;11095;48.066;8.540;2022-07-23T08:26:20;25.70;99.90
21861;DHT22;11095;48.066;8.540;2022-07-23T08:28:46;25.40;99.90
21861;DHT22;11095;48.066;8.540;2022-07-23T08:31:11;25.10;99.90
21861;DHT22;11095;48.066;8.540;2022-07-23T08:33:37;24.90;99.90
21861;DHT22;11095;48.066;8.540;2022-07-23T08:36:04;24.70;99.90
21861;DHT22;11095;48.066;8.540;2022-07-23T08:38:30;24.40;99.90
21861;DHT22;11095;48.066;8.540;2022-07-23T08:40:59;24.20;99.90
21861;DHT22;11095;48.066;8.540;2022-07-23T08:43:29;24.20;99.90
21861;DHT22;11095;48.066;8.540;2022-07-23T08:45:59;24.10;99.90
21861;DHT22;11095;48.066;8.540;2022-07-23T08:48:31;24.10;99.90
21861;DHT22;11095;48.066;8.540;2022-07-23T08:50:59;24.50;99.90
21861;DHT22;11095;48.066;8.540;2022-07-23T08:53:29;24.70;99.90
21861;DHT22;11095;48.066;8.540;2022-07-23T08:55:58;24.80;99.90
21861;DHT22;11095;48.066;8.540;2022-07-23T08:58:26;24.70;99.90
21861;DHT22;11095;48.066;8.540;2022-07-23T09:00:52;24.70;99.90
21861;DHT22;11095;48.066;8.540;2022-07-23T09:03:26;24.80;99.90
21861;DHT22;11095;48.066;8.540;2022-07-23T09:05:56;25.20;99.90
21861;DHT22;11095;48.066;8.540;2022-07-23T09:08:39;25.80;99.90
21861;DHT22;11095;48.066;8.540;2022-07-23T09:11:07;26.40;99.90
21861;DHT22;11095;48.066;8.540;2022-07-23T09:13:48;27.10;99.90
21861;DHT22;11095;48.066;8.540;2022-07-23T09:16:30;27.60;99.90
21861;DHT22;11095;48.066;8.540;2022-07-23T09:19:06;28.30;99.90
21861;DHT22;11095;48.066;8.540;2022-07-23T09:21:33;29.30;99.90
21861;DHT22;11095;48.066;8.540;2022-07-23T09:24:07;30.20;99.90
21861;DHT22;11095;48.066;8.540;2022-07-23T09:26:43;31.00;99.90
21861;DHT22;11095;48.066;8.540;2022-07-23T09:31:56;31.60;99.90
21861;DHT22;11095;48.066;8.540;2022-07-23T09:34:25;32.00;99.90
21861;DHT22;11095;48.066;8.540;2022-07-23T09:37:12;32.10;99.90
21861;DHT22;11095;48.066;8.540;2022-07-23T09:39:42;31.90;99.90
21861;DHT22;11095;48.066;8.540;2022-07-23T09:44:48;31.20;99.90
21861;DHT22;11095;48.066;8.540;2022-07-23T09:47:14;30.80;99.90
21861;DHT22;11095;48.066;8.540;2022-07-23T09:49:41;30.40;99.90
21861;DHT22;11095;48.066;8.540;2022-07-23T09:52:30;29.90;99.90
21861;DHT22;11095;48.066;8.540;2022-07-23T09:55:01;29.50;99.90
21861;DHT22;11095;48.066;8.540;2022-07-23T09:57:27;29.60;99.90
21861;DHT22;11095;48.066;8.540;2022-07-23T09:59:57;30.10;99.90
21861;DHT22;11095;48.066;8.540;2022-07-23T10:02:24;30.20;99.90
21861;DHT22;11095;48.066;8.540;2022-07-23T10:04:53;30.40;99.90
21861;DHT22;11095;48.066;8.540;2022-07-23T10:07:21;30.90;99.90
21861;DHT22;11095;48.066;8.540;2022-07-23T10:09:50;31.50;99.90
21861;DHT22;11095;48.066;8.540;2022-07-23T10:12:19;31.90;99.90
21861;DHT22;11095;48.066;8.540;2022-07-23T10:14:44;31.80;99.90
21861;DHT22;11095;48.066;8.540;2022-07-23T10:17:11;31.80;99.90
21861;DHT22;11095;48.066;8.540;2022-07-23T10:19:38;32.20;99.90
21861;DHT22;11095;48.066;8.540;2022-07-23T10:30:12;32.40;99.90
21861;DHT22;11095;48.066;8.540;2022-07-23T10:32:59;32.40;99.90
21861;DHT22;11095;48.066;8.540;2022-07-23T10:36:06;32.60;99.90
21861;DHT22;11095;48.066;8.540;2022-07-23T10:41:04;31.80;99.90
21861;DHT22;11095;48.066;8.540;2022-07-23T10:43:31;31.20;99.90
21861;DHT22;11095;48.066;8.540;2022-07-23T10:46:25;29.30;99.90
21861;DHT22;11095;48.066;8.540;2022-07-23T10:49:20;28.60;99.90
21861;DHT22;11095;48.066;8.540;2022-07-23T10:54:31;28.00;99.90
21861;DHT22;11095;48.066;8.540;2022-07-23T10:59:23;27.80;99.90
21861;DHT22;11095;48.066;8.540;2022-07-23T11:01:49;27.80;99.90
21861;DHT22;11095;48.066;8.540;2022-07-23T11:04:15;27.80;99.90
21861;DHT22;11095;48.066;8.540;2022-07-23T11:09:29;27.70;99.90
21861;DHT22;11095;48.066;8.540;2022-07-23T11:15:05;27.60;99.90
21861;DHT22;11095;48.066;8.540;2022-07-23T11:22:38;28.10;99.90
21861;DHT22;11095;48.066;8.540;2022-07-23T11:25:05;28.20;99.90
21861;DHT22;11095;48.066;8.540;2022-07-23T11:27:42;28.30;99.90
21861;DHT22;11095;48.066;8.540;2022-07-23T11:30:10;28.40;99.90
21861;DHT22;11095;48.066;8.540;2022-07-23T11:32:49;28.20;99.90
21861;DHT22;11095;48.066;8.540;2022-07-23T11:35:23;28.10;99.90
21861;DHT22;11095;48.066;8.540;2022-07-23T11:37:50;27.80;99.90
21861;DHT22;11095;48.066;8.540;2022-07-23T11:40:20;27.60;99.90
21861;DHT22;11095;48.066;8.540;2022-07-23T11:43:12;27.50;99.90
21861;DHT22;11095;48.066;8.540;2022-07-23T11:45:39;27.40;99.90
21861;DHT22;11095;48.066;8.540;2022-07-23T11:48:08;27.10;99.90
21861;DHT22;11095;48.066;8.540;2022-07-23T11:50:34;27.00;99.90
21861;DHT22;11095;48.066;8.540;2022-07-23T11:53:00;27.30;99.90
21861;DHT22;11095;48.066;8.540;2022-07-23T11:55:26;27.50;99.90
21861;DHT22;11095;48.066;8.540;2022-07-23T12:00:32;28.30;99.90
21861;DHT22;11095;48.066;8.540;2022-07-23T12:03:00;28.20;99.90
21861;DHT22;11095;48.066;8.540;2022-07-23T12:05:36;28.30;99.90
21861;DHT22;11095;48.066;8.540;2022-07-23T12:08:06;28.50;99.90
21861;DHT22;11095;48.066;8.540;2022-07-23T12:10:39;28.60;99.90
21861;DHT22;11095;48.066;8.540;2022-07-23T12:13:10;28.50;99.90
21861;DHT22;11095;48.066;8.540;2022-07-23T12:15:50;28.50;99.90
21861;DHT22;11095;48.066;8.540;2022-07-23T12:18:19;28.40;99.90
21861;DHT22;11095;48.066;8.540;2022-07-23T12:20:48;28.40;99.90
21861;DHT22;11095;48.066;8.540;2022-07-23T12:23:17;28.70;99.90
21861;DHT22;11095;48.066;8.540;2022-07-23T12:25:44;28.90;99.90
21861;DHT22;11095;48.066;8.540;2022-07-23T12:28:17;28.80;99.90
21861;DHT22;11095;48.066;8.540;2022-07-23T12:30:54;28.30;99.90
21861;DHT22;11095;48.066;8.540;2022-07-23T12:33:26;28.10;99.90
21861;DHT22;11095;48.066;8.540;2022-07-23T12:35:54;27.80;99.90
21861;DHT22;11095;48.066;8.540;2022-07-23T12:38:22;27.40;99.90
21861;DHT22;11095;48.066;8.540;2022-07-23T12:40:52;27.00;99.90
21861;DHT22;11095;48.066;8.540;2022-07-23T12:43:24;27.10;99.90
21861;DHT22;11095;48.066;8.540;2022-07-23T12:46:06;27.50;99.90
21861;DHT22;11095;48.066;8.540;2022-07-23T12:48:35;28.10;99.90
21861;DHT22;11095;48.066;8.540;2022-07-23T12:51:02;28.20;99.90
21861;DHT22;11095;48.066;8.540;2022-07-23T12:53:31;28.30;99.90
21861;DHT22;11095;48.066;8.540;2022-07-23T12:56:02;28.40;99.90
21861;DHT22;11095;48.066;8.540;2022-07-23T12:58:40;28.50;99.90
21861;DHT22;11095;48.066;8.540;2022-07-23T13:01:07;28.50;99.90
21861;DHT22;11095;48.066;8.540;2022-07-23T13:03:36;28.50;99.90
21861;DHT22;11095;48.066;8.540;2022-07-23T13:06:03;28.80;99.90
21861;DHT22;11095;48.066;8.540;2022-07-23T13:08:31;29.20;99.90
21861;DHT22;11095;48.066;8.540;2022-07-23T13:10:57;29.30;99.90
21861;DHT22;11095;48.066;8.540;2022-07-23T13:13:28;29.40;99.90
21861;DHT22;11095;48.066;8.540;2022-07-23T13:15:56;29.80;99.90
21861;DHT22;11095;48.066;8.540;2022-07-23T13:18:22;30.40;99.90
21861;DHT22;11095;48.066;8.540;2022-07-23T13:20:48;30.70;99.90
21861;DHT22;11095;48.066;8.540;2022-07-23T13:23:15;30.90;99.90
21861;DHT22;11095;48.066;8.540;2022-07-23T13:25:41;31.20;99.90
21861;DHT22;11095;48.066;8.540;2022-07-23T13:28:07;31.50;99.90
21861;DHT22;11095;48.066;8.540;2022-07-23T13:30:33;31.60;99.90
21861;DHT22;11095;48.066;8.540;2022-07-23T13:32:59;31.50;99.40
21861;DHT22;11095;48.066;8.540;2022-07-23T13:35:25;30.70;97.50
21861;DHT22;11095;48.066;8.540;2022-07-23T13:37:50;28.90;99.80
21861;DHT22;11095;48.066;8.540;2022-07-23T13:40:16;27.30;99.90
21861;DHT22;11095;48.066;8.540;2022-07-23T13:42:42;27.10;99.90
21861;DHT22;11095;48.066;8.540;2022-07-23T13:45:07;27.20;99.90
21861;DHT22;11095;48.066;8.540;2022-07-23T13:47:33;27.70;99.90
21861;DHT22;11095;48.066;8.540;2022-07-23T13:49:59;28.30;99.90
21861;DHT22;11095;48.066;8.540;2022-07-23T13:52:25;28.80;99.90
21861;DHT22;11095;48.066;8.540;2022-07-23T13:54:51;29.00;99.90
21861;DHT22;11095;48.066;8.540;2022-07-23T13:57:17;29.20;99.90
21861;DHT22;11095;48.066;8.540;2022-07-23T13:59:43;29.40;99.90
21861;DHT22;11095;48.066;8.540;2022-07-23T14:02:09;29.50;99.90
21861;DHT22;11095;48.066;8.540;2022-07-23T14:04:35;29.70;99.90
21861;DHT22;11095;48.066;8.540;2022-07-23T14:07:01;29.40;99.30
21861;DHT22;11095;48.066;8.540;2022-07-23T14:09:27;29.40;96.90
21861;DHT22;11095;48.066;8.540;2022-07-23T14:11:53;29.60;95.50
21861;DHT22;11095;48.066;8.540;2022-07-23T14:14:19;29.50;95.10
21861;DHT22;11095;48.066;8.540;2022-07-23T14:16:44;29.70;94.90
21861;DHT22;11095;48.066;8.540;2022-07-23T14:19:10;29.70;95.00
21861;DHT22;11095;48.066;8.540;2022-07-23T14:21:37;29.70;94.40
21861;DHT22;11095;48.066;8.540;2022-07-23T14:24:03;29.70;94.80
21861;DHT22;11095;48.066;8.540;2022-07-23T14:26:29;29.60;93.10
21861;DHT22;11095;48.066;8.540;2022-07-23T14:28:55;28.30;93.60
21861;DHT22;11095;48.066;8.540;2022-07-23T14:31:21;27.50;95.90
21861;DHT22;11095;48.066;8.540;2022-07-23T14:33:46;27.30;96.40
21861;DHT22;11095;48.066;8.540;2022-07-23T14:36:12;27.50;96.90
21861;DHT22;11095;48.066;8.540;2022-07-23T14:38:38;27.70;96.90
21861;DHT22;11095;48.066;8.540;2022-07-23T14:41:04;27.80;97.00
21861;DHT22;11095;48.066;8.540;2022-07-23T14:43:32;28.20;96.50
21861;DHT22;11095;48.066;8.540;2022-07-23T14:45:58;28.30;95.40
21861;DHT22;11095;48.066;8.540;2022-07-23T14:48:24;28.10;95.60
21861;DHT22;11095;48.066;8.540;2022-07-23T14:50:50;28.00;96.20
21861;DHT22;11095;48.066;8.540;2022-07-23T14:53:16;28.30;95.90
21861;DHT22;11095;48.066;8.540;2022-07-23T14:55:41;27.40;96.70
21861;DHT22;11095;48.066;8.540;2022-07-23T14:58:07;27.50;96.30
21861;DHT22;11095;48.066;8.540;2022-07-23T15:00:33;27.30;96.30
21861;DHT22;11095;48.066;8.540;2022-07-23T15:02:58;27.70;96.90
21861;DHT22;11095;48.066;8.540;2022-07-23T15:05:24;27.90;97.20
21861;DHT22;11095;48.066;8.540;2022-07-23T15:07:50;28.10;97.30
21861;DHT22;11095;48.066;8.540;2022-07-23T15:10:15;28.40;96.70
21861;DHT22;11095;48.066;8.540;2022-07-23T15:12:41;28.70;96.10
21861;DHT22;11095;48.066;8.540;2022-07-23T15:15:07;29.00;96.40
21861;DHT22;11095;48.066;8.540;2022-07-23T15:17:33;29.00;94.40
21861;DHT22;11095;48.066;8.540;2022-07-23T15:19:59;28.60;94.80
21861;DHT22;11095;48.066;8.540;2022-07-23T15:22:25;28.70;94.80
21861;DHT22;11095;48.066;8.540;2022-07-23T15:24:50;28.80;95.00
21861;DHT22;11095;48.066;8.540;2022-07-23T15:27:16;28.90;95.20
21861;DHT22;11095;48.066;8.540;2022-07-23T15:29:43;29.10;94.80
21861;DHT22;11095;48.066;8.540;2022-07-23T15:32:09;29.10;94.20
21861;DHT22;11095;48.066;8.540;2022-07-23T15:34:34;29.20;94.50
21861;DHT22;11095;48.066;8.540;2022-07-23T15:37:01;29.20;93.80
21861;DHT22;11095;48.066;8.540;2022-07-23T15:39:27;28.40;94.30
21861;DHT22;11095;48.066;8.540;2022-07-23T15:41:52;28.40;94.70
21861;DHT22;11095;48.066;8.540;2022-07-23T15:44:18;28.10;94.60
21861;DHT22;11095;48.066;8.540;2022-07-23T15:46:44;27.90;95.20
21861;DHT22;11095;48.066;8.540;2022-07-23T15:49:09;27.70;95.80
21861;DHT22;11095;48.066;8.540;2022-07-23T15:51:35;27.90;95.80
21861;DHT22;11095;48.066;8.540;2022-07-23T15:54:01;28.10;95.50
21861;DHT22;11095;48.066;8.540;2022-07-23T15:56:26;28.30;95.40
21861;DHT22;11095;48.066;8.540;2022-07-23T15:58:52;28.40;94.90
21861;DHT22;11095;48.066;8.540;2022-07-23T16:01:18;28.50;94.30
21861;DHT22;11095;48.066;8.540;2022-07-23T16:03:44;28.40;93.50
21861;DHT22;11095;48.066;8.540;2022-07-23T16:06:09;28.20;93.90
21861;DHT22;11095;48.066;8.540;2022-07-23T16:08:35;28.20;94.40
21861;DHT22;11095;48.066;8.540;2022-07-23T16:11:01;28.20;94.50